createdAt,value
2023-03-15T00:00:47.503Z,59.32
2023-03-15T00:03:17.041Z,58.27
2023-03-15T00:05:45.595Z,59.72
2023-03-15T00:08:12.569Z,58.01
2023-03-15T00:10:43.278Z,59.24
2023-03-15T00:13:11.056Z,59.05
2023-03-15T00:15:48.948Z,59.65
2023-03-15T00:18:16.807Z,59.29
2023-03-15T00:20:44.000Z,58.83
2023-03-15T00:23:11.279Z,58.54
2023-03-15T00:25:38.354Z,59.29
2023-03-15T00:28:05.704Z,59.84
2023-03-15T00:30:32.994Z,59.45
2023-03-15T00:32:59.863Z,58.79
2023-03-15T00:35:26.562Z,59.65
2023-03-15T00:37:56.976Z,58.09
2023-03-15T00:40:24.595Z,58.67
2023-03-15T00:42:51.800Z,58.56
2023-03-15T00:45:22.316Z,59.51
2023-03-15T00:47:50.760Z,59.98
2023-03-15T00:50:17.927Z,59.40
2023-03-15T00:52:44.855Z,59.97
2023-03-15T00:55:14.059Z,58.53
2023-03-15T00:57:43.714Z,59.69
2023-03-15T01:00:14.417Z,59.15
2023-03-15T01:02:41.953Z,58.12
2023-03-15T01:05:10.128Z,59.06
2023-03-15T01:07:37.049Z,59.10
2023-03-15T01:10:05.863Z,59.34
2023-03-15T01:12:34.090Z,58.79
2023-03-15T01:15:02.330Z,59.12
2023-03-15T01:17:29.254Z,59.53
2023-03-15T01:19:56.208Z,58.77
2023-03-15T01:22:23.115Z,59.40
2023-03-15T01:24:50.119Z,60.08
2023-03-15T01:27:17.031Z,58.94
2023-03-15T01:29:43.895Z,59.39
2023-03-15T01:32:10.871Z,59.64
2023-03-15T01:34:37.911Z,60.10
2023-03-15T01:37:04.637Z,59.80
2023-03-15T01:39:31.983Z,60.53
2023-03-15T01:41:58.860Z,60.25
2023-03-15T01:44:51.362Z,60.75
2023-03-15T01:47:18.578Z,61.09
2023-03-15T01:49:48.282Z,61.60
2023-03-15T01:52:22.245Z,60.72
2023-03-15T01:55:11.360Z,62.15
2023-03-15T01:57:51.078Z,62.08
2023-03-15T02:00:20.084Z,61.83
2023-03-15T02:02:53.664Z,61.43
2023-03-15T02:05:32.626Z,61.58
2023-03-15T02:08:00.154Z,61.15
2023-03-15T02:10:32.051Z,62.29
2023-03-15T02:12:59.869Z,62.50
2023-03-15T02:15:27.245Z,62.14
2023-03-15T02:17:54.356Z,62.35
2023-03-15T02:20:40.206Z,63.76
2023-03-15T02:23:09.295Z,64.14
2023-03-15T02:26:33.511Z,64.25
2023-03-15T02:29:01.382Z,64.18
2023-03-15T02:31:28.738Z,65.56
2023-03-15T02:33:55.975Z,66.13
2023-03-15T02:36:26.303Z,65.97
2023-03-15T02:38:53.981Z,67.17
2023-03-15T02:41:26.789Z,66.66
2023-03-15T02:43:56.335Z,66.18
2023-03-15T02:46:23.391Z,68.31
2023-03-15T02:48:54.234Z,68.38
2023-03-15T02:51:24.038Z,68.74
2023-03-15T02:53:51.041Z,69.36
2023-03-15T02:56:17.962Z,68.33
2023-03-15T02:58:48.022Z,69.16
2023-03-15T03:01:16.026Z,71.73
2023-03-15T03:03:44.664Z,69.66
2023-03-15T03:06:14.863Z,71.05
2023-03-15T03:08:41.764Z,71.18
2023-03-15T03:11:08.651Z,70.81
2023-03-15T03:13:35.528Z,72.48
2023-03-15T03:16:02.216Z,73.07
2023-03-15T03:18:30.490Z,72.70
2023-03-15T03:20:58.477Z,73.29
2023-03-15T03:23:26.515Z,72.25
2023-03-15T03:25:54.540Z,74.34
2023-03-15T03:28:22.340Z,74.24
2023-03-15T03:30:49.265Z,74.56
2023-03-15T03:33:16.328Z,73.68
2023-03-15T03:35:43.229Z,76.14
2023-03-15T03:38:11.097Z,75.75
2023-03-15T03:40:40.647Z,74.74
2023-03-15T03:43:08.748Z,75.29
2023-03-15T03:45:36.077Z,76.46
2023-03-15T03:48:03.005Z,77.05
2023-03-15T03:50:29.892Z,78.16
2023-03-15T03:52:56.767Z,78.00
2023-03-15T03:55:25.350Z,78.78
2023-03-15T03:57:53.306Z,80.32
2023-03-15T04:00:20.611Z,81.09
2023-03-15T04:02:47.633Z,80.11
2023-03-15T04:05:14.547Z,79.69
2023-03-15T04:07:41.750Z,80.62
2023-03-15T04:10:09.252Z,80.91
2023-03-15T04:12:36.218Z,80.30
2023-03-15T04:15:03.589Z,79.15
2023-03-15T04:17:30.646Z,80.07
2023-03-15T04:19:58.186Z,81.77
2023-03-15T04:22:25.196Z,80.83
2023-03-15T04:24:52.032Z,82.05
2023-03-15T04:27:18.774Z,80.61
2023-03-15T04:29:45.653Z,80.62
2023-03-15T04:32:12.353Z,78.19
2023-03-15T04:34:39.330Z,79.76
2023-03-15T04:37:06.577Z,78.99
2023-03-15T04:39:33.542Z,78.64
2023-03-15T04:42:00.427Z,78.84
2023-03-15T04:44:27.365Z,77.18
2023-03-15T04:46:55.346Z,77.97
2023-03-15T04:49:22.624Z,78.08
2023-03-15T04:51:49.533Z,75.93
2023-03-15T04:54:16.447Z,76.39
2023-03-15T04:56:43.114Z,75.06
2023-03-15T04:59:11.356Z,73.50
2023-03-15T05:01:38.340Z,75.01
2023-03-15T05:04:05.369Z,74.41
2023-03-15T05:06:32.268Z,76.53
2023-03-15T05:08:59.211Z,76.87
2023-03-15T05:11:26.472Z,76.98
2023-03-15T05:13:53.725Z,75.15
2023-03-15T05:16:20.719Z,74.38
2023-03-15T05:18:47.613Z,71.89
2023-03-15T05:21:14.571Z,73.31
2023-03-15T05:23:42.181Z,72.16
2023-03-15T05:26:09.085Z,72.21
2023-03-15T05:28:35.997Z,70.89
2023-03-15T05:31:02.933Z,69.43
2023-03-15T05:33:29.873Z,70.62
2023-03-15T05:35:56.852Z,69.96
2023-03-15T05:38:27.016Z,69.58
2023-03-15T05:40:54.748Z,68.95
2023-03-15T05:43:22.018Z,70.29
2023-03-15T05:45:49.240Z,69.99
2023-03-15T05:48:16.990Z,69.35
2023-03-15T05:50:43.895Z,69.67
2023-03-15T05:53:10.990Z,69.48
2023-03-15T05:55:38.717Z,68.81
2023-03-15T05:58:06.495Z,67.04
2023-03-15T06:00:33.788Z,67.23
2023-03-15T06:03:00.747Z,68.27
2023-03-15T06:05:27.630Z,68.37
2023-03-15T06:07:54.533Z,66.82
2023-03-15T06:10:21.395Z,66.68
2023-03-15T06:12:48.173Z,65.73
2023-03-15T06:15:15.132Z,63.87
2023-03-15T06:17:42.022Z,64.29
2023-03-15T06:20:09.594Z,63.84
2023-03-15T06:22:36.508Z,62.74
2023-03-15T06:25:03.730Z,60.58
2023-03-15T06:27:30.569Z,60.17
2023-03-15T06:29:57.658Z,58.81
2023-03-15T06:32:24.679Z,57.82
2023-03-15T06:34:51.708Z,56.87
2023-03-15T06:37:29.088Z,56.83
2023-03-15T06:39:59.684Z,54.65
2023-03-15T06:42:26.548Z,54.74
2023-03-15T06:44:53.274Z,55.59
2023-03-15T06:47:20.145Z,54.35
2023-03-15T06:49:50.514Z,53.16
2023-03-15T06:52:17.942Z,53.01
2023-03-15T06:54:44.925Z,54.32
2023-03-15T06:57:12.062Z,53.61
2023-03-15T06:59:38.995Z,53.41
2023-03-15T07:02:05.875Z,53.37
2023-03-15T07:04:32.598Z,53.21
2023-03-15T07:06:59.471Z,51.86
2023-03-15T07:09:26.224Z,52.04
2023-03-15T07:11:53.087Z,53.47
2023-03-15T07:14:19.741Z,54.52
2023-03-15T07:16:48.254Z,53.64
2023-03-15T07:19:15.267Z,55.16
2023-03-15T07:21:42.131Z,54.30
2023-03-15T07:24:08.789Z,52.99
2023-03-15T07:26:35.651Z,52.89
2023-03-15T07:29:02.363Z,52.22
2023-03-15T07:31:29.260Z,53.28
2023-03-15T07:33:56.112Z,56.97
2023-03-15T07:36:22.803Z,56.26
2023-03-15T07:38:49.645Z,57.26
2023-03-15T07:41:16.367Z,54.69
2023-03-15T07:43:43.215Z,56.39
2023-03-15T07:46:10.330Z,58.27
2023-03-15T07:48:37.271Z,60.46
2023-03-15T07:51:05.087Z,59.73
2023-03-15T07:53:32.113Z,60.11
2023-03-15T07:55:59.103Z,59.11
2023-03-15T07:58:26.040Z,56.85
2023-03-15T08:00:56.204Z,56.47
2023-03-15T08:03:24.422Z,54.87
2023-03-15T08:05:51.705Z,57.13
2023-03-15T08:08:18.731Z,58.37
2023-03-15T08:10:46.379Z,58.20
2023-03-15T08:13:13.845Z,58.09
2023-03-15T08:15:41.784Z,57.23
2023-03-15T08:18:08.691Z,59.24
2023-03-15T08:20:35.566Z,57.59
2023-03-15T08:23:02.291Z,57.86
2023-03-15T08:25:29.900Z,58.19
2023-03-15T08:27:56.982Z,59.01
2023-03-15T08:30:24.271Z,58.38
2023-03-15T08:32:52.729Z,56.92
2023-03-15T08:35:21.587Z,59.24
2023-03-15T08:37:48.766Z,61.71
2023-03-15T08:40:19.197Z,59.56
2023-03-15T08:42:46.176Z,60.26
2023-03-15T08:45:13.144Z,60.60
2023-03-15T08:47:40.002Z,60.87
2023-03-15T08:50:08.383Z,61.52
2023-03-15T08:52:35.379Z,60.69
2023-03-15T08:55:02.520Z,62.04
2023-03-15T08:57:29.904Z,62.41
2023-03-15T08:59:57.768Z,61.92
2023-03-15T09:02:24.771Z,61.57
2023-03-15T09:04:53.434Z,61.71
2023-03-15T09:07:21.993Z,62.87
2023-03-15T09:09:48.979Z,62.36
2023-03-15T09:12:18.854Z,61.41
2023-03-15T09:14:45.675Z,62.91
2023-03-15T09:17:12.431Z,62.97
2023-03-15T09:19:39.864Z,61.63
2023-03-15T09:22:16.264Z,62.79
2023-03-15T09:24:44.041Z,61.06
2023-03-15T09:27:11.951Z,62.52
2023-03-15T09:29:39.149Z,61.77
2023-03-15T09:32:06.293Z,62.65
2023-03-15T09:34:39.944Z,62.56
2023-03-15T09:37:09.036Z,61.58
2023-03-15T09:39:35.910Z,62.92
2023-03-15T09:42:04.749Z,62.37
2023-03-15T09:44:39.494Z,63.17
2023-03-15T09:47:28.076Z,62.03
2023-03-15T09:50:09.992Z,61.95
2023-03-15T09:52:47.530Z,62.61
2023-03-15T09:55:23.640Z,61.36
2023-03-15T09:57:58.948Z,62.41
2023-03-15T10:00:35.054Z,62.79
2023-03-15T10:03:07.393Z,60.65
2023-03-15T10:05:50.159Z,62.02
2023-03-15T10:08:18.598Z,61.48
2023-03-15T10:11:23.287Z,59.91
2023-03-15T10:14:05.282Z,61.30
2023-03-15T10:16:40.860Z,60.27
2023-03-15T10:19:32.487Z,59.86
2023-03-15T10:22:11.632Z,59.77
2023-03-15T10:25:05.280Z,59.40
2023-03-15T10:27:37.793Z,58.86
2023-03-15T10:30:24.359Z,58.72
2023-03-15T10:33:18.386Z,57.69
2023-03-15T10:35:45.314Z,59.42
2023-03-15T10:38:20.988Z,58.22
2023-03-15T10:40:53.342Z,58.97
2023-03-15T10:43:39.884Z,57.12
2023-03-15T10:46:12.175Z,57.95
2023-03-15T10:49:00.285Z,58.17
2023-03-15T10:51:32.991Z,57.52
2023-03-15T10:54:07.750Z,56.62
2023-03-15T10:56:56.482Z,57.15
2023-03-15T10:59:25.576Z,56.00
2023-03-15T11:01:55.277Z,55.32
2023-03-15T11:04:34.209Z,54.16
2023-03-15T11:07:03.713Z,54.00
2023-03-15T11:09:42.218Z,54.66
2023-03-15T11:12:11.390Z,54.03
2023-03-15T11:14:44.229Z,52.55
2023-03-15T11:17:22.461Z,50.71
2023-03-15T11:20:10.094Z,51.12
2023-03-15T11:22:36.962Z,51.89
2023-03-15T11:25:03.795Z,50.41
2023-03-15T11:27:31.972Z,52.02
2023-03-15T11:29:59.972Z,52.09
2023-03-15T11:32:29.402Z,53.04
2023-03-15T11:35:06.174Z,52.22
2023-03-15T11:38:15.244Z,50.30
2023-03-15T11:40:49.402Z,50.42
2023-03-15T11:43:20.068Z,51.42
2023-03-15T11:46:05.256Z,51.36
2023-03-15T11:48:43.313Z,52.07
2023-03-15T11:51:11.856Z,50.83
2023-03-15T11:54:04.280Z,50.37
2023-03-15T11:56:58.611Z,51.30
2023-03-15T11:59:33.736Z,51.21
2023-03-15T12:02:15.540Z,50.62
2023-03-15T12:04:46.137Z,50.06
2023-03-15T12:07:19.058Z,50.85
2023-03-15T12:10:06.103Z,50.45
2023-03-15T12:12:32.959Z,50.88
2023-03-15T12:15:04.139Z,51.34
2023-03-15T12:17:30.947Z,50.24
2023-03-15T12:20:21.206Z,51.49
2023-03-15T12:22:52.048Z,52.39
2023-03-15T12:25:29.830Z,52.13
2023-03-15T12:27:58.048Z,52.89
2023-03-15T12:30:33.832Z,51.21
2023-03-15T12:33:02.514Z,51.04
2023-03-15T12:35:34.225Z,50.50
2023-03-15T12:38:01.806Z,51.19
2023-03-15T12:40:28.632Z,51.38
2023-03-15T12:42:57.488Z,51.00
2023-03-15T12:45:27.555Z,51.35
2023-03-15T12:47:54.397Z,51.98
2023-03-15T12:50:39.334Z,54.00
2023-03-15T12:53:23.656Z,52.59
2023-03-15T12:55:54.126Z,53.60
2023-03-15T12:58:36.110Z,53.51
2023-03-15T13:01:05.852Z,53.30
2023-03-15T13:03:35.888Z,52.61
2023-03-15T13:06:27.297Z,53.84
2023-03-15T13:09:04.932Z,50.85
2023-03-15T13:11:49.041Z,50.19
2023-03-15T13:14:22.589Z,50.43
2023-03-15T13:17:28.525Z,49.74
2023-03-15T13:20:39.346Z,50.17
2023-03-15T13:23:23.627Z,49.80
2023-03-15T13:26:00.392Z,49.88
2023-03-15T13:28:39.932Z,47.96
2023-03-15T13:31:19.289Z,48.06
2023-03-15T13:34:00.297Z,48.93
2023-03-15T13:36:46.162Z,47.30
2023-03-15T13:39:31.327Z,47.41
2023-03-15T13:42:06.039Z,46.51
2023-03-15T13:44:34.190Z,45.08
2023-03-15T13:47:01.147Z,45.42
2023-03-15T13:49:32.877Z,44.95
2023-03-15T13:52:02.424Z,45.67
2023-03-15T13:54:33.230Z,44.54
2023-03-15T13:57:07.512Z,43.06
2023-03-15T13:59:57.732Z,42.87
2023-03-15T14:02:47.516Z,41.77
2023-03-15T14:05:27.546Z,41.56
2023-03-15T14:08:04.571Z,41.24
2023-03-15T14:10:36.119Z,42.18
2023-03-15T14:13:21.699Z,42.36
2023-03-15T14:15:48.682Z,42.61
2023-03-15T14:18:24.040Z,40.89
2023-03-15T14:21:02.836Z,41.41
2023-03-15T14:23:30.742Z,41.88
2023-03-15T14:26:12.583Z,42.40
2023-03-15T14:28:40.463Z,41.56
2023-03-15T14:31:07.434Z,42.71
2023-03-15T14:33:40.367Z,41.52
2023-03-15T14:36:21.424Z,42.27
2023-03-15T14:38:54.084Z,42.56
2023-03-15T14:41:23.912Z,43.47
2023-03-15T14:43:51.028Z,42.50
2023-03-15T14:46:18.045Z,42.58
2023-03-15T14:48:45.137Z,42.84
2023-03-15T14:51:20.717Z,44.01
2023-03-15T14:53:50.006Z,43.94
2023-03-15T14:56:19.326Z,40.86
2023-03-15T14:58:46.716Z,41.86
2023-03-15T15:01:16.856Z,40.67
2023-03-15T15:03:54.086Z,40.26
2023-03-15T15:06:22.002Z,39.65
2023-03-15T15:08:49.954Z,39.00
2023-03-15T15:11:16.844Z,39.31
2023-03-15T15:13:43.679Z,38.98
2023-03-15T15:16:10.489Z,39.63
2023-03-15T15:18:37.916Z,38.68
2023-03-15T15:21:22.149Z,39.29
2023-03-15T15:23:58.579Z,38.67
2023-03-15T15:26:28.062Z,38.00
2023-03-15T15:28:55.424Z,39.29
2023-03-15T15:31:24.102Z,39.28
2023-03-15T15:33:52.427Z,39.65
2023-03-15T15:36:25.246Z,39.55
2023-03-15T15:38:52.324Z,39.66
2023-03-15T15:41:24.056Z,39.57
2023-03-15T15:43:51.290Z,40.21
2023-03-15T15:46:18.500Z,40.84
2023-03-15T15:48:45.574Z,41.30
2023-03-15T15:51:39.040Z,41.12
2023-03-15T15:54:06.309Z,41.80
2023-03-15T15:56:35.593Z,41.52
2023-03-15T15:59:04.682Z,42.02
2023-03-15T16:01:32.224Z,42.00
2023-03-15T16:04:00.348Z,41.39
2023-03-15T16:06:27.701Z,42.33
2023-03-15T16:08:55.031Z,42.85
2023-03-15T16:11:22.116Z,43.27
2023-03-15T16:13:51.249Z,42.84
2023-03-15T16:16:18.902Z,43.98
2023-03-15T16:18:46.064Z,43.55
2023-03-15T16:21:25.737Z,43.46
2023-03-15T16:23:57.520Z,42.87
2023-03-15T16:26:24.527Z,42.06
2023-03-15T16:28:52.205Z,40.97
2023-03-15T16:31:22.361Z,41.65
2023-03-15T16:33:50.250Z,40.88
2023-03-15T16:36:22.016Z,40.55
2023-03-15T16:38:49.418Z,40.73
2023-03-15T16:41:17.438Z,39.85
2023-03-15T16:43:46.243Z,40.38
2023-03-15T16:46:16.023Z,40.22
2023-03-15T16:48:43.236Z,40.88
2023-03-15T16:51:13.839Z,40.16
2023-03-15T16:53:44.854Z,40.84
2023-03-15T16:56:15.629Z,41.24
2023-03-15T16:58:43.926Z,41.05
2023-03-15T17:01:11.639Z,41.50
2023-03-15T17:03:38.632Z,41.62
2023-03-15T17:06:06.179Z,41.53
2023-03-15T17:08:33.248Z,41.36
2023-03-15T17:11:00.326Z,42.03
2023-03-15T17:13:29.294Z,42.47
2023-03-15T17:15:56.235Z,41.90
2023-03-15T17:18:24.277Z,42.43
2023-03-15T17:20:51.305Z,43.21
2023-03-15T17:23:21.360Z,43.13
2023-03-15T17:25:48.888Z,43.56
2023-03-15T17:28:15.804Z,43.57
2023-03-15T17:30:42.818Z,43.30
2023-03-15T17:33:09.782Z,42.88
2023-03-15T17:35:41.159Z,42.76
2023-03-15T17:38:21.916Z,43.67
2023-03-15T17:40:48.978Z,43.24
2023-03-15T17:43:17.157Z,43.07
2023-03-15T17:45:44.354Z,43.73
2023-03-15T17:48:11.490Z,44.08
2023-03-15T17:50:38.744Z,43.52
2023-03-15T17:53:18.454Z,44.12
2023-03-15T17:55:46.703Z,43.63
2023-03-15T17:58:22.462Z,44.32
2023-03-15T18:00:54.810Z,43.96
2023-03-15T18:03:22.526Z,43.97
2023-03-15T18:05:49.741Z,43.65
2023-03-15T18:08:19.255Z,43.18
2023-03-15T18:10:46.951Z,43.49
2023-03-15T18:13:17.933Z,43.09
2023-03-15T18:15:49.939Z,42.96
2023-03-15T18:18:17.300Z,43.61
2023-03-15T18:20:45.541Z,43.08
2023-03-15T18:23:14.604Z,43.09
2023-03-15T18:25:41.842Z,43.49
2023-03-15T18:28:09.071Z,43.04
2023-03-15T18:30:35.997Z,42.90
2023-03-15T18:33:04.386Z,42.35
2023-03-15T18:35:33.992Z,43.06
2023-03-15T18:38:01.072Z,42.80
2023-03-15T18:40:29.747Z,42.74
2023-03-15T18:42:57.376Z,41.89
2023-03-15T18:45:25.812Z,42.30
2023-03-15T18:47:52.897Z,42.83
2023-03-15T18:50:21.562Z,42.66
2023-03-15T18:52:48.740Z,41.89
2023-03-15T18:55:17.332Z,41.50
2023-03-15T18:57:46.403Z,41.69
2023-03-15T19:00:17.128Z,40.98
2023-03-15T19:02:46.286Z,41.31
2023-03-15T19:05:14.836Z,42.28
2023-03-15T19:07:42.136Z,41.98
2023-03-15T19:10:13.506Z,42.10
2023-03-15T19:12:41.157Z,42.11
2023-03-15T19:15:11.964Z,42.13
2023-03-15T19:17:39.431Z,41.73
2023-03-15T19:20:07.882Z,42.14
2023-03-15T19:22:35.328Z,41.74
2023-03-15T19:25:02.249Z,41.55
2023-03-15T19:27:29.130Z,41.58
2023-03-15T19:29:56.055Z,41.07
2023-03-15T19:32:23.135Z,41.84
2023-03-15T19:34:50.202Z,41.28
2023-03-15T19:37:17.235Z,41.55
2023-03-15T19:39:44.464Z,42.04
2023-03-15T19:42:11.642Z,41.35
2023-03-15T19:44:38.629Z,41.60
2023-03-15T19:47:05.648Z,42.22
2023-03-15T19:49:32.646Z,42.32
2023-03-15T19:51:59.558Z,41.70
2023-03-15T19:54:26.431Z,41.88
2023-03-15T19:56:54.186Z,41.88
2023-03-15T19:59:21.038Z,41.20
2023-03-15T20:01:47.742Z,41.95
2023-03-15T20:04:14.746Z,41.82
2023-03-15T20:06:41.702Z,42.12
2023-03-15T20:09:08.978Z,42.06
2023-03-15T20:11:35.887Z,42.47
2023-03-15T20:14:02.832Z,42.46
2023-03-15T20:16:29.902Z,42.75
2023-03-15T20:18:57.124Z,42.56
2023-03-15T20:21:24.035Z,43.57
2023-03-15T20:23:50.775Z,43.73
2023-03-15T20:26:18.535Z,43.33
2023-03-15T20:28:47.273Z,44.50
2023-03-15T20:31:16.313Z,44.81
2023-03-15T20:33:44.446Z,44.43
2023-03-15T20:36:11.677Z,44.17
2023-03-15T20:38:38.669Z,44.27
2023-03-15T20:41:06.359Z,44.15
2023-03-15T20:43:33.630Z,43.68
2023-03-15T20:46:02.279Z,42.30
2023-03-15T20:48:31.101Z,43.20
2023-03-15T20:50:58.523Z,43.35
2023-03-15T20:53:26.023Z,43.42
2023-03-15T20:55:52.961Z,43.65
2023-03-15T20:58:19.868Z,44.52
2023-03-15T21:00:46.972Z,43.21
2023-03-15T21:03:15.180Z,44.64
2023-03-15T21:05:43.770Z,46.25
2023-03-15T21:08:11.520Z,45.29
2023-03-15T21:10:38.913Z,44.79
2023-03-15T21:13:10.327Z,44.29
2023-03-15T21:15:46.713Z,45.84
2023-03-15T21:18:15.106Z,45.39
2023-03-15T21:20:42.137Z,47.08
2023-03-15T21:23:09.696Z,46.47
2023-03-15T21:25:37.126Z,47.99
2023-03-15T21:28:04.575Z,48.16
2023-03-15T21:30:32.228Z,48.57
2023-03-15T21:32:59.308Z,49.23
2023-03-15T21:38:59.986Z,48.70
2023-03-15T21:41:26.906Z,49.32
2023-03-15T21:43:53.758Z,50.81
2023-03-15T21:46:20.574Z,51.81
2023-03-15T21:48:47.588Z,51.61
2023-03-15T21:51:14.860Z,52.87
2023-03-15T21:53:41.842Z,52.79
2023-03-15T21:56:08.979Z,53.58
2023-03-15T21:58:35.867Z,54.04
2023-03-15T22:01:08.004Z,53.33
2023-03-15T22:03:36.424Z,54.37
2023-03-15T22:06:03.693Z,54.11
2023-03-15T22:08:30.909Z,54.20
2023-03-15T22:10:58.919Z,55.43
2023-03-15T22:13:27.523Z,56.78
2023-03-15T22:15:54.520Z,56.32
2023-03-15T22:18:21.512Z,56.34
2023-03-15T22:20:49.319Z,57.24
2023-03-15T22:23:16.267Z,57.66
2023-03-15T22:29:47.353Z,57.51
2023-03-15T22:36:40.062Z,57.84
2023-03-15T22:39:07.821Z,57.58
2023-03-15T22:41:35.385Z,58.54
2023-03-15T22:44:02.279Z,57.93
2023-03-15T22:46:34.873Z,58.19
2023-03-15T22:49:02.205Z,57.89
2023-03-15T22:51:29.111Z,58.13
2023-03-15T22:53:55.973Z,58.01
2023-03-15T22:56:22.672Z,58.86
2023-03-15T22:58:49.576Z,59.96
2023-03-15T23:01:16.498Z,60.79
2023-03-15T23:03:43.558Z,60.04
2023-03-15T23:06:10.411Z,59.45
2023-03-15T23:08:37.112Z,58.07
2023-03-15T23:11:04.393Z,57.34
2023-03-15T23:13:31.395Z,58.80
2023-03-15T23:22:38.746Z,57.61
2023-03-15T23:25:54.096Z,57.92
2023-03-15T23:28:22.443Z,57.15
2023-03-15T23:30:49.286Z,57.87
2023-03-15T23:33:16.430Z,57.61
2023-03-15T23:35:43.648Z,57.28
2023-03-15T23:38:10.545Z,57.59
2023-03-15T23:40:37.555Z,59.12
2023-03-15T23:43:04.530Z,59.12
2023-03-15T23:45:31.472Z,59.03
2023-03-15T23:47:58.931Z,60.20
2023-03-15T23:50:26.664Z,61.49
2023-03-15T23:52:54.997Z,60.94
2023-03-15T23:55:22.534Z,61.14
2023-03-15T23:57:49.637Z,60.43
